Kennebec, North Carolina
Current Conditions -  °F | °C
As of 4:35 PM on Monday 24 Nov 2014 (Local Time) from KHRJ Reporting Station
Broken Clouds Broken Clouds  
Wind Chill: 69°   Ceiling: 9000
Heat Index: 69°   Visibility: 10mi
Dew Point: 63°   Wind: 9mph
Humidity: 80%   Direction: 180°S
Pressure: 29.81"   Gusts: NA
Location:  35.5718°N, 78.7112°W
Report Text: KHRJ 242135Z AUTO 18008KT 10SM BKN090 BKN120 21/17 A2981 RMK AO2 T02050170
Loading
Personal Weather Stations






























Interactive Weather Map New forecast layout! Learn more

10-Day Weather Forecast

Advertisements
Track Severe Weather on mobile